createdAt,value
2023-04-17T00:00:59.393Z,0.7
2023-04-17T00:02:09.147Z,0.7
2023-04-17T00:03:18.887Z,0.6
2023-04-17T00:04:27.597Z,0.8
2023-04-17T00:05:37.166Z,0.8
2023-04-17T00:06:44.878Z,0.8
2023-04-17T00:07:53.520Z,0.7
2023-04-17T00:09:03.235Z,1.2
2023-04-17T00:10:11.886Z,1.1
2023-04-17T00:11:21.570Z,1
2023-04-17T00:12:30.262Z,0.9
2023-04-17T00:13:39.994Z,1.2
2023-04-17T00:14:49.659Z,1.3
2023-04-17T00:15:58.371Z,1.4
2023-04-17T00:17:08.092Z,1.3
2023-04-17T00:18:19.476Z,1.6
2023-04-17T00:19:28.365Z,1.5
2023-04-17T00:20:37.035Z,1.6
2023-04-17T00:21:45.752Z,1.4
2023-04-17T00:22:53.472Z,1.2
2023-04-17T00:24:02.183Z,1.3
2023-04-17T00:25:09.867Z,1.1
2023-04-17T00:26:18.488Z,1.3
2023-04-17T00:27:28.205Z,1
2023-04-17T00:28:35.863Z,1
2023-04-17T00:29:45.537Z,1
2023-04-17T00:30:54.235Z,0.8
2023-04-17T00:32:02.092Z,0.9
2023-04-17T00:33:11.733Z,0.9
2023-04-17T00:34:19.447Z,0.8
2023-04-17T00:35:28.107Z,0.8
2023-04-17T00:36:37.777Z,1.1
2023-04-17T00:37:45.532Z,0.6
2023-04-17T00:38:55.226Z,0.7
2023-04-17T00:40:04.877Z,1
2023-04-17T00:41:13.710Z,0.8
2023-04-17T00:42:24.380Z,0.8
2023-04-17T00:43:32.026Z,1.1
2023-04-17T00:44:41.706Z,0.7
2023-04-17T00:45:51.376Z,0.7
2023-04-17T00:46:59.040Z,0.7
2023-04-17T00:48:06.765Z,1
2023-04-17T00:49:16.354Z,0.6
2023-04-17T00:50:24.053Z,0.8
2023-04-17T00:51:33.728Z,0.8
2023-04-17T00:52:43.416Z,0.9
2023-04-17T00:53:54.241Z,0.7
2023-04-17T00:55:03.897Z,0.8
2023-04-17T00:56:13.565Z,0.9
2023-04-17T00:57:21.314Z,0.9
2023-04-17T00:58:30.940Z,0.8
2023-04-17T00:59:38.592Z,1.2
2023-04-17T01:00:47.263Z,1.1
2023-04-17T01:01:56.976Z,1.1
2023-04-17T01:03:05.773Z,1
2023-04-17T01:04:14.492Z,0.8
2023-04-17T01:05:22.948Z,1.2
2023-04-17T01:06:30.593Z,1.1
2023-04-17T01:07:40.269Z,1.4
2023-04-17T01:08:47.933Z,1.3
2023-04-17T01:09:56.611Z,1.5
2023-04-17T01:11:06.266Z,1.6
2023-04-17T01:12:13.932Z,1.7
2023-04-17T01:13:23.672Z,1.7
2023-04-17T01:14:32.302Z,1.4
2023-04-17T01:15:39.993Z,1.7
2023-04-17T01:16:49.663Z,1.5
2023-04-17T01:17:57.402Z,1.4
2023-04-17T01:19:05.955Z,1.7
2023-04-17T01:20:15.593Z,1.4
2023-04-17T01:21:24.268Z,1.5
2023-04-17T01:22:33.926Z,1.7
2023-04-17T01:23:43.593Z,1.4
2023-04-17T01:24:52.263Z,1.6
2023-04-17T01:26:01.938Z,1.3
2023-04-17T01:27:09.554Z,1.1
2023-04-17T01:28:18.232Z,1.1
2023-04-17T01:29:27.911Z,1
2023-04-17T01:30:37.020Z,1.2
2023-04-17T01:31:46.687Z,1
2023-04-17T01:32:56.431Z,0.6
2023-04-17T01:34:05.030Z,0.8
2023-04-17T01:35:13.732Z,0.9
2023-04-17T01:36:21.392Z,0.8
2023-04-17T01:37:31.085Z,0.9
2023-04-17T01:38:40.757Z,0.6
2023-04-17T01:39:49.389Z,0.8
2023-04-17T01:40:59.062Z,0.9
2023-04-17T01:42:07.739Z,0.7
2023-04-17T01:43:15.418Z,1
2023-04-17T01:44:25.103Z,0.8
2023-04-17T01:45:32.785Z,0.8
2023-04-17T01:46:41.426Z,0.6
2023-04-17T01:47:51.098Z,0.7
2023-04-17T01:48:58.723Z,0.7
2023-04-17T01:50:08.400Z,0.9
2023-04-17T01:51:18.047Z,0.6
2023-04-17T01:52:26.702Z,0.6
2023-04-17T01:53:36.431Z,0.9
2023-04-17T01:54:44.123Z,0.8
2023-04-17T01:55:53.736Z,0.9
2023-04-17T01:57:03.399Z,0.6
2023-04-17T01:58:11.070Z,1
2023-04-17T01:59:20.721Z,0.9
2023-04-17T02:00:29.382Z,1.2
2023-04-17T02:01:38.118Z,0.9
2023-04-17T02:02:46.885Z,1.2
2023-04-17T02:03:55.506Z,1.7
2023-04-17T02:05:04.071Z,1.2
2023-04-17T02:06:13.741Z,2
2023-04-17T02:07:21.379Z,2.5
2023-04-17T02:08:31.089Z,2.4
2023-04-17T02:09:39.726Z,2.5
2023-04-17T02:10:47.389Z,2.4
2023-04-17T02:11:57.041Z,2.3
2023-04-17T02:13:04.744Z,2.4
2023-04-17T02:14:12.468Z,2.2
2023-04-17T02:15:22.481Z,2.1
2023-04-17T02:16:31.216Z,2.3
2023-04-17T02:17:40.913Z,1.7
2023-04-17T02:18:50.653Z,2
2023-04-17T02:19:59.313Z,1.7
2023-04-17T02:21:08.996Z,1.4
2023-04-17T02:22:16.644Z,1.6
2023-04-17T02:23:25.332Z,1.4
2023-04-17T02:24:34.975Z,1.8
2023-04-17T02:25:42.619Z,1.7
2023-04-17T02:26:52.295Z,1.3
2023-04-17T02:28:02.007Z,1.4
2023-04-17T02:29:11.798Z,1.5
2023-04-17T02:30:21.318Z,1.5
2023-04-17T02:31:29.129Z,1.3
2023-04-17T02:32:37.764Z,1.3
2023-04-17T02:33:47.430Z,1.9
2023-04-17T02:34:57.057Z,1.4
2023-04-17T02:36:06.806Z,1.5
2023-04-17T02:37:16.440Z,1.4
2023-04-17T02:38:25.118Z,1.7
2023-04-17T02:39:34.773Z,1.6
2023-04-17T02:40:42.449Z,1.3
2023-04-17T02:41:51.110Z,1.3
2023-04-17T02:43:00.766Z,1.3
2023-04-17T02:44:09.458Z,1.1
2023-04-17T02:45:18.131Z,1.5
2023-04-17T02:46:27.774Z,1.3
2023-04-17T02:47:35.449Z,1.3
2023-04-17T02:48:44.138Z,1.5
2023-04-17T02:49:53.829Z,1.7
2023-04-17T02:51:02.482Z,1.3
2023-04-17T02:52:12.162Z,1.3
2023-04-17T02:53:20.860Z,1.6
2023-04-17T02:54:29.539Z,1.5
2023-04-17T02:55:39.218Z,1.4
2023-04-17T02:56:47.875Z,1.4
2023-04-17T02:57:56.575Z,2
2023-04-17T02:59:06.279Z,1.5
2023-04-17T03:00:14.979Z,1.4
2023-04-17T03:01:24.643Z,1.6
2023-04-17T03:02:33.452Z,2.2
2023-04-17T03:03:41.256Z,1.5
2023-04-17T03:04:51.742Z,1.3
2023-04-17T03:06:00.478Z,1.5
2023-04-17T03:07:10.071Z,1.6
2023-04-17T03:08:19.714Z,1.6
2023-04-17T03:09:27.421Z,1.4
2023-04-17T03:10:37.077Z,1.7
2023-04-17T03:11:46.736Z,1.5
2023-04-17T03:12:54.422Z,1.8
2023-04-17T03:14:04.146Z,1.4
2023-04-17T03:15:13.776Z,1.6
2023-04-17T03:16:23.507Z,1.5
2023-04-17T03:17:33.118Z,1.3
2023-04-17T03:18:41.848Z,1.7
2023-04-17T03:19:51.519Z,1.5
2023-04-17T03:21:00.174Z,1.8
2023-04-17T03:22:07.848Z,1.7
2023-04-17T03:23:17.567Z,2.1
2023-04-17T03:24:26.277Z,1.8
2023-04-17T03:25:34.949Z,2.2
2023-04-17T03:26:44.615Z,2
2023-04-17T03:27:52.297Z,1.7
2023-04-17T03:29:01.978Z,1.5
2023-04-17T03:30:10.661Z,1.5
2023-04-17T03:31:18.337Z,1.7
2023-04-17T03:32:28.136Z,1.6
2023-04-17T03:33:36.798Z,1.4
2023-04-17T03:34:45.494Z,1.3
2023-04-17T03:35:55.172Z,1.9
2023-04-17T03:37:03.854Z,1.6
2023-04-17T03:38:13.628Z,1.7
2023-04-17T03:39:23.266Z,2
2023-04-17T03:40:33.609Z,1.5
2023-04-17T03:41:42.586Z,1.6
2023-04-17T03:42:51.291Z,1.5
2023-04-17T03:43:58.956Z,1.5
2023-04-17T03:45:08.772Z,1.8
2023-04-17T03:46:18.460Z,1.8
2023-04-17T03:47:28.122Z,1.4
2023-04-17T03:48:37.737Z,1.6
2023-04-17T03:49:47.496Z,1.2
2023-04-17T03:50:57.213Z,1.5
2023-04-17T03:52:03.859Z,1.5
2023-04-17T03:53:12.520Z,1.3
2023-04-17T03:54:22.285Z,0.9
2023-04-17T03:55:29.928Z,1
2023-04-17T03:56:38.577Z,1.2
2023-04-17T03:57:47.306Z,1.3
2023-04-17T03:58:55.986Z,1.1
2023-04-17T04:00:05.700Z,1.1
2023-04-17T04:01:13.378Z,1
2023-04-17T04:02:22.228Z,0.9
2023-04-17T04:03:32.013Z,1.1
2023-04-17T04:04:40.594Z,0.9
2023-04-17T04:05:50.182Z,1.1
2023-04-17T04:06:58.847Z,1.4
2023-04-17T04:08:06.540Z,0.9
2023-04-17T04:09:16.222Z,1.3
2023-04-17T04:10:25.041Z,1
2023-04-17T04:11:33.549Z,1.3
2023-04-17T04:12:43.234Z,1
2023-04-17T04:13:51.886Z,0.9
2023-04-17T04:15:01.628Z,1
2023-04-17T04:16:11.339Z,1.1
2023-04-17T04:17:18.968Z,1.4
2023-04-17T04:18:28.646Z,1.3
2023-04-17T04:19:36.374Z,1.3
2023-04-17T04:20:45.093Z,1.2
2023-04-17T04:21:54.778Z,1.1
2023-04-17T04:23:03.470Z,1.4
2023-04-17T04:24:12.150Z,1.4
2023-04-17T04:25:20.870Z,1.7
2023-04-17T04:26:29.544Z,1.4
2023-04-17T04:27:39.235Z,1.5
2023-04-17T04:28:47.951Z,1.6
2023-04-17T04:29:56.708Z,1.4
2023-04-17T04:31:06.419Z,1.5
2023-04-17T04:32:14.101Z,1.2
2023-04-17T04:33:22.806Z,1.5
2023-04-17T04:34:31.472Z,1.7
2023-04-17T04:35:40.186Z,1.2
2023-04-17T04:36:49.924Z,1.7
2023-04-17T04:37:58.613Z,1.3
2023-04-17T04:39:07.273Z,1.5
2023-04-17T04:40:16.974Z,1.7
2023-04-17T04:41:24.668Z,1.7
2023-04-17T04:42:34.365Z,1.1
2023-04-17T04:43:44.031Z,1.5
2023-04-17T04:44:51.980Z,1.7
2023-04-17T04:46:01.712Z,1.4
2023-04-17T04:47:11.359Z,1.4
2023-04-17T04:48:20.092Z,1.2
2023-04-17T04:49:29.785Z,1.2
2023-04-17T04:50:38.523Z,1.5
2023-04-17T04:51:47.217Z,1.6
2023-04-17T04:52:56.891Z,1.6
2023-04-17T04:54:04.560Z,1.4
2023-04-17T04:55:13.299Z,1.4
2023-04-17T04:56:23.010Z,1.8
2023-04-17T04:57:31.696Z,1.2
2023-04-17T04:58:41.415Z,1.4
2023-04-17T04:59:50.083Z,1
2023-04-17T05:00:57.798Z,1
2023-04-17T05:02:07.519Z,1.3
2023-04-17T05:03:15.354Z,1.4
2023-04-17T05:04:23.934Z,1.3
2023-04-17T05:05:32.545Z,1.2
2023-04-17T05:06:40.200Z,1.2
2023-04-17T05:07:49.866Z,1.1
2023-04-17T05:08:59.540Z,1.2
2023-04-17T05:10:08.272Z,1.6
2023-04-17T05:11:18.909Z,1.3
2023-04-17T05:12:26.574Z,1.1
2023-04-17T05:13:35.270Z,1.2
2023-04-17T05:14:44.945Z,0.9
2023-04-17T05:15:52.641Z,1.4
2023-04-17T05:17:02.298Z,1.2
2023-04-17T05:18:11.002Z,1.8
2023-04-17T05:19:20.797Z,1.3
2023-04-17T05:20:30.525Z,1.5
2023-04-17T05:21:38.217Z,1.1
2023-04-17T05:22:46.916Z,1.3
2023-04-17T05:23:56.686Z,1.2
2023-04-17T05:25:05.358Z,1.3
2023-04-17T05:26:15.121Z,1.2
2023-04-17T05:27:23.821Z,1.5
2023-04-17T05:28:31.518Z,2
2023-04-17T05:29:41.195Z,2
2023-04-17T05:30:48.918Z,2.4
2023-04-17T05:31:57.609Z,2.9
2023-04-17T05:33:07.319Z,2.8
2023-04-17T05:34:14.940Z,2.6
2023-04-17T05:35:24.641Z,2.5
2023-04-17T05:36:33.348Z,3
2023-04-17T05:37:41.038Z,3
2023-04-17T05:38:50.729Z,2.7
2023-04-17T05:39:58.413Z,3.7
2023-04-17T05:41:08.129Z,2.8
2023-04-17T05:42:17.870Z,2.7
2023-04-17T05:43:25.547Z,2.8
2023-04-17T05:44:35.212Z,2.4
2023-04-17T05:45:42.921Z,3.4
2023-04-17T05:46:52.706Z,3.7
2023-04-17T05:48:00.308Z,2.6
2023-04-17T05:49:07.961Z,3.5
2023-04-17T05:50:16.636Z,3
2023-04-17T05:51:26.392Z,3.3
2023-04-17T05:52:35.670Z,3.1
2023-04-17T05:53:45.773Z,2.6
2023-04-17T05:54:55.459Z,2.5
2023-04-17T05:56:03.173Z,1.7
2023-04-17T05:57:13.844Z,1.2
2023-04-17T05:58:24.576Z,1.3
2023-04-17T05:59:33.222Z,1.7
2023-04-17T06:00:42.942Z,1.2
2023-04-17T06:01:50.707Z,1.2
2023-04-17T06:03:00.615Z,1.3
2023-04-17T06:04:10.365Z,1.5
2023-04-17T06:05:18.852Z,1.3
2023-04-17T06:06:28.668Z,1.4
2023-04-17T06:07:36.327Z,1.6
2023-04-17T06:08:45.030Z,1.5
2023-04-17T06:09:54.711Z,1.6
2023-04-17T06:11:02.426Z,1.4
2023-04-17T06:12:11.181Z,2.1
2023-04-17T06:13:20.867Z,1.3
2023-04-17T06:14:29.630Z,1.3
2023-04-17T06:15:39.363Z,1.4
2023-04-17T06:16:48.138Z,1.3
2023-04-17T06:17:56.820Z,1.2
2023-04-17T06:19:06.524Z,1.2
2023-04-17T06:20:14.210Z,1.1
2023-04-17T06:21:23.903Z,1.3
2023-04-17T06:22:33.585Z,1.2
2023-04-17T06:23:41.310Z,1.1
2023-04-17T06:24:51.000Z,1
2023-04-17T06:25:58.781Z,1.1
2023-04-17T06:27:07.401Z,1.3
2023-04-17T06:28:17.097Z,1.3
2023-04-17T06:29:25.792Z,1.3
2023-04-17T06:30:35.593Z,1.5
2023-04-17T06:31:44.205Z,2.1
2023-04-17T06:32:52.923Z,1.6
2023-04-17T06:34:02.645Z,1.5
2023-04-17T06:35:11.357Z,1.7
2023-04-17T06:36:21.054Z,1.2
2023-04-17T06:37:30.827Z,1.3
2023-04-17T06:38:39.477Z,1.2
2023-04-17T06:39:48.181Z,1.1
2023-04-17T06:40:57.826Z,1
2023-04-17T06:42:05.591Z,1.2
2023-04-17T06:43:14.309Z,1
2023-04-17T06:44:24.000Z,1.1
2023-04-17T06:45:32.665Z,1.5
2023-04-17T06:46:42.423Z,1.3
2023-04-17T06:47:51.112Z,1.3
2023-04-17T06:48:58.749Z,1.3
2023-04-17T06:50:08.450Z,1
2023-04-17T06:51:16.168Z,1
2023-04-17T06:52:25.826Z,0.9
2023-04-17T06:53:35.603Z,1.5
2023-04-17T06:54:43.287Z,1.8
2023-04-17T06:55:52.980Z,2.1
2023-04-17T06:57:01.738Z,2.1
2023-04-17T06:58:09.429Z,3.1
2023-04-17T06:59:19.326Z,3.2
2023-04-17T07:00:27.063Z,3.4
2023-04-17T07:01:35.776Z,3
2023-04-17T07:02:45.495Z,2.5
2023-04-17T07:03:54.209Z,3.2
2023-04-17T07:05:03.849Z,6.3
2023-04-17T07:06:12.564Z,1.9
2023-04-17T07:07:22.345Z,1.2
2023-04-17T07:08:31.960Z,1.2
2023-04-17T07:09:41.646Z,1.7
2023-04-17T07:10:51.345Z,2.2
2023-04-17T07:12:00.255Z,4.3
2023-04-17T07:13:09.928Z,3.8
2023-04-17T07:14:19.621Z,2.5
2023-04-17T07:15:28.342Z,2.1
2023-04-17T07:16:37.057Z,2
2023-04-17T07:17:46.783Z,1.2
2023-04-17T07:18:55.438Z,1.1
2023-04-17T07:20:04.119Z,1.1
2023-04-17T07:21:13.788Z,1.3
2023-04-17T07:22:21.485Z,1.2
2023-04-17T07:23:31.189Z,1
2023-04-17T07:24:39.829Z,1.2
2023-04-17T07:25:47.535Z,1.3
2023-04-17T07:26:57.253Z,1.4
2023-04-17T07:28:04.922Z,1.3
2023-04-17T07:29:14.711Z,1.1
2023-04-17T07:30:24.296Z,1.5
2023-04-17T07:31:32.998Z,1.5
2023-04-17T07:32:41.690Z,1.2
2023-04-17T07:33:51.410Z,1.4
2023-04-17T07:35:00.094Z,1.5
2023-04-17T07:36:09.802Z,1.3
2023-04-17T07:37:18.539Z,1.4
2023-04-17T07:38:27.197Z,1.2
2023-04-17T07:39:36.908Z,1.5
2023-04-17T07:40:45.564Z,1.7
2023-04-17T07:41:55.277Z,1.1
2023-04-17T07:43:03.995Z,1.6
2023-04-17T07:44:11.679Z,1.5
2023-04-17T07:45:21.828Z,1.5
2023-04-17T07:46:29.524Z,1.5
2023-04-17T07:47:38.314Z,1.4
2023-04-17T07:48:47.976Z,1.6
2023-04-17T07:49:56.647Z,1.6
2023-04-17T07:51:06.372Z,1.2
2023-04-17T07:52:15.044Z,1.7
2023-04-17T07:53:22.778Z,1.1
2023-04-17T07:54:32.452Z,1.2
2023-04-17T07:55:40.189Z,1.4
2023-04-17T07:56:49.830Z,1
2023-04-17T07:57:59.590Z,0.8
2023-04-17T07:59:07.316Z,0.7
2023-04-17T08:00:17.016Z,0.7
2023-04-17T08:01:26.696Z,1.2
2023-04-17T08:02:35.486Z,1.2
2023-04-17T08:03:45.384Z,1.3
2023-04-17T08:04:52.834Z,1.5
2023-04-17T08:06:01.483Z,1.5
2023-04-17T08:07:11.194Z,1.7
2023-04-17T08:08:19.856Z,1.5
2023-04-17T08:09:29.576Z,1.9
2023-04-17T08:10:38.254Z,1.7
2023-04-17T08:11:56.716Z,1.2
2023-04-17T08:12:57.687Z,1.6
2023-04-17T08:14:06.364Z,1.1
2023-04-17T08:15:16.357Z,1.1
2023-04-17T08:16:26.110Z,1.3
2023-04-17T08:17:34.828Z,1.1
2023-04-17T08:18:44.543Z,1.4
2023-04-17T08:19:53.228Z,1.1
2023-04-17T08:21:00.940Z,0.9
2023-04-17T08:22:10.670Z,1.4
2023-04-17T08:23:18.367Z,1.1
2023-04-17T08:24:27.062Z,0.8
2023-04-17T08:25:36.856Z,1.1
2023-04-17T08:26:47.567Z,1.6
2023-04-17T08:27:57.725Z,1.1
2023-04-17T08:29:06.977Z,1.6
2023-04-17T08:30:18.716Z,1.4
2023-04-17T08:31:27.445Z,0.9
2023-04-17T08:32:35.134Z,1.4
2023-04-17T08:33:43.811Z,1.6
2023-04-17T08:34:53.519Z,1.9
2023-04-17T08:36:02.860Z,2
2023-04-17T08:37:11.963Z,1.5
2023-04-17T08:38:21.629Z,1.7
2023-04-17T08:39:30.324Z,1.6
2023-04-17T08:40:38.992Z,1.1
2023-04-17T08:41:48.680Z,1.1
2023-04-17T08:42:57.394Z,0.7
2023-04-17T08:44:06.086Z,0.8
2023-04-17T08:45:13.761Z,0.9
2023-04-17T08:46:23.491Z,2
2023-04-17T08:47:33.284Z,1.3
2023-04-17T08:48:41.916Z,0.9
2023-04-17T08:49:50.652Z,1.4
2023-04-17T08:51:00.334Z,1.2
2023-04-17T08:52:08.034Z,1.2
2023-04-17T08:53:17.730Z,1.3
2023-04-17T08:54:26.433Z,1.5
2023-04-17T08:55:34.143Z,1.6
2023-04-17T08:56:43.845Z,1.4
2023-04-17T08:57:51.581Z,1.1
2023-04-17T08:59:02.247Z,1.4
2023-04-17T09:00:10.950Z,1.4
2023-04-17T09:01:19.677Z,1.2
2023-04-17T09:02:28.547Z,1.3
2023-04-17T09:03:37.182Z,1.2
2023-04-17T09:04:45.912Z,2
2023-04-17T09:05:55.543Z,1
2023-04-17T09:07:03.215Z,1.6
2023-04-17T09:08:11.907Z,1.4
2023-04-17T09:09:20.591Z,1
2023-04-17T09:10:29.459Z,1.5
2023-04-17T09:11:39.122Z,1.5
2023-04-17T09:12:46.865Z,2
2023-04-17T09:13:54.571Z,1
2023-04-17T09:15:04.221Z,1.5
2023-04-17T09:16:12.006Z,1.1
2023-04-17T09:17:20.632Z,1.4
2023-04-17T09:18:30.409Z,1.6
2023-04-17T09:19:39.063Z,1
2023-04-17T09:20:48.737Z,0.9
2023-04-17T09:21:58.428Z,1.3
2023-04-17T09:23:06.159Z,1.4
2023-04-17T09:24:15.861Z,1.5
2023-04-17T09:25:24.534Z,1.3
2023-04-17T09:26:33.197Z,1.1
2023-04-17T09:27:42.893Z,1.4
2023-04-17T09:28:50.575Z,1.2
2023-04-17T09:30:00.272Z,1.5
2023-04-17T09:31:11.953Z,1
2023-04-17T09:32:18.715Z,1.1
2023-04-17T09:33:28.450Z,1.1
2023-04-17T09:34:36.122Z,1.7
2023-04-17T09:35:45.818Z,2
2023-04-17T09:36:55.483Z,1.5
2023-04-17T09:38:03.225Z,1.7
2023-04-17T09:39:13.077Z,1.7
2023-04-17T09:40:20.605Z,1.7
2023-04-17T09:41:28.338Z,1.5
2023-04-17T09:42:38.040Z,1.6
2023-04-17T09:43:45.763Z,1.7
2023-04-17T09:44:55.473Z,1.6
2023-04-17T09:46:05.185Z,1.3
2023-04-17T09:47:12.876Z,1.9
2023-04-17T09:48:22.644Z,1.4
2023-04-17T09:49:31.339Z,2
2023-04-17T09:50:41.029Z,1.3
2023-04-17T09:51:50.696Z,1.9
2023-04-17T09:53:00.411Z,1.8
2023-04-17T09:54:09.147Z,1.9
2023-04-17T09:55:18.848Z,2.2
2023-04-17T09:56:27.537Z,1.7
2023-04-17T09:57:37.219Z,1
2023-04-17T09:58:46.919Z,1.9
2023-04-17T09:59:55.647Z,1.3
2023-04-17T10:01:05.346Z,1.6
2023-04-17T10:02:14.094Z,1
2023-04-17T10:03:23.996Z,1.5
2023-04-17T10:04:33.639Z,1.3
2023-04-17T10:05:42.205Z,1.4
2023-04-17T10:06:51.868Z,1.7
2023-04-17T10:08:00.594Z,1.6
2023-04-17T10:09:08.289Z,1.6
2023-04-17T10:10:17.952Z,1.5
2023-04-17T10:11:26.657Z,1.2
2023-04-17T10:12:35.352Z,1.2
2023-04-17T10:13:45.067Z,1.4
2023-04-17T10:14:53.755Z,1.9
2023-04-17T10:16:03.463Z,1.7
2023-04-17T10:17:13.140Z,1.5
2023-04-17T10:18:20.848Z,1.3
2023-04-17T10:19:31.311Z,1.5
2023-04-17T10:20:39.085Z,1.6
2023-04-17T10:21:47.674Z,1
2023-04-17T10:22:57.408Z,1.4
2023-04-17T10:24:05.127Z,1.4
2023-04-17T10:25:14.794Z,1.8
2023-04-17T10:26:23.492Z,1.3
2023-04-17T10:27:32.191Z,1.1
2023-04-17T10:28:41.879Z,1.2
2023-04-17T10:29:50.593Z,1.6
2023-04-17T10:31:00.294Z,1.4
2023-04-17T10:32:10.040Z,1.5
2023-04-17T10:33:18.780Z,2
2023-04-17T10:34:28.407Z,1.9
2023-04-17T10:35:37.111Z,1.8
2023-04-17T10:36:44.786Z,1.9
2023-04-17T10:37:53.489Z,1.7
2023-04-17T10:39:03.181Z,1.8
2023-04-17T10:40:10.863Z,1.5
2023-04-17T10:41:20.549Z,1.6
2023-04-17T10:42:29.250Z,1.5
2023-04-17T10:43:37.914Z,1.7
2023-04-17T10:44:47.664Z,1.4
2023-04-17T10:45:56.402Z,1.3
2023-04-17T10:47:06.027Z,1.6
2023-04-17T10:48:15.745Z,1
2023-04-17T10:49:24.425Z,1.1
2023-04-17T10:50:34.103Z,1.3
2023-04-17T10:51:42.763Z,0.9
2023-04-17T10:52:51.514Z,1.2
2023-04-17T10:54:01.172Z,1.2
2023-04-17T10:55:09.863Z,1.2
2023-04-17T10:56:19.555Z,1.3
2023-04-17T10:57:29.235Z,1.3
2023-04-17T10:58:36.957Z,1.7
2023-04-17T10:59:45.702Z,1.7
2023-04-17T11:00:54.395Z,1.6
2023-04-17T11:02:03.078Z,1.6
2023-04-17T11:03:12.757Z,1.6
2023-04-17T11:04:20.499Z,1.2
2023-04-17T11:05:30.152Z,1.4
2023-04-17T11:06:39.904Z,1.4
2023-04-17T11:07:48.580Z,1.2
2023-04-17T11:08:58.460Z,1.4
2023-04-17T11:10:07.033Z,1
2023-04-17T11:11:15.523Z,1.1
2023-04-17T11:12:25.377Z,1.1
2023-04-17T11:13:33.034Z,1.2
2023-04-17T11:14:41.726Z,1
2023-04-17T11:15:51.410Z,1.3
2023-04-17T11:17:01.133Z,1.4
2023-04-17T11:18:10.801Z,1.4
2023-04-17T11:19:20.454Z,1.1
2023-04-17T11:20:29.141Z,2.7
2023-04-17T11:21:38.868Z,1.3
2023-04-17T11:22:46.578Z,1.7
2023-04-17T11:23:55.251Z,1.2
2023-04-17T11:25:04.988Z,1.4
2023-04-17T11:26:12.623Z,1.3
2023-04-17T11:27:22.376Z,1.4
2023-04-17T11:28:32.023Z,1
2023-04-17T11:29:39.728Z,1.8
2023-04-17T11:30:49.459Z,1.4
2023-04-17T11:31:57.161Z,1.4
2023-04-17T11:33:06.960Z,1.3
2023-04-17T11:34:16.616Z,1.2
2023-04-17T11:35:25.322Z,1
2023-04-17T11:36:35.036Z,1.4
2023-04-17T11:37:43.709Z,1.4
2023-04-17T11:38:51.937Z,1.6
2023-04-17T11:40:02.195Z,1.2
2023-04-17T11:41:09.911Z,1.9
2023-04-17T11:42:18.560Z,1.7
2023-04-17T11:43:28.233Z,1.7
2023-04-17T11:44:36.990Z,1.1
2023-04-17T11:45:46.638Z,1.3
2023-04-17T11:46:55.305Z,1.1
2023-04-17T11:48:03.022Z,1.2
2023-04-17T11:49:12.861Z,1.3
2023-04-17T11:50:21.435Z,1.1
2023-04-17T11:51:30.121Z,1.4
2023-04-17T11:52:39.798Z,1.5
2023-04-17T11:53:48.479Z,1.1
2023-04-17T11:54:58.186Z,1.1
2023-04-17T11:56:06.850Z,1.2
2023-04-17T11:57:15.561Z,1.2
2023-04-17T11:58:25.286Z,1.1
2023-04-17T11:59:32.964Z,1.7
2023-04-17T12:00:42.655Z,1.1
2023-04-17T12:01:52.349Z,1.2
2023-04-17T12:03:00.190Z,1.2
2023-04-17T12:04:09.934Z,1.4
2023-04-17T12:05:19.479Z,1.3
2023-04-17T12:06:28.189Z,1.4
2023-04-17T12:07:37.880Z,1.2
2023-04-17T12:08:45.561Z,1.5
2023-04-17T12:09:55.291Z,1.1
2023-04-17T12:11:04.993Z,1.5
2023-04-17T12:12:14.710Z,1.7
2023-04-17T12:13:24.506Z,0.8
2023-04-17T12:14:34.167Z,1.2
2023-04-17T12:15:41.819Z,1.5
2023-04-17T12:16:51.548Z,1.3
2023-04-17T12:18:00.261Z,1.2
2023-04-17T12:19:09.913Z,1.4
2023-04-17T12:20:19.636Z,1.2
2023-04-17T12:21:28.336Z,1.4
2023-04-17T12:22:38.014Z,1.2
2023-04-17T12:23:47.689Z,1.3
2023-04-17T12:24:57.394Z,0.7
2023-04-17T12:26:07.092Z,1.2
2023-04-17T12:27:15.769Z,1.1
2023-04-17T12:28:25.460Z,1.1
2023-04-17T12:29:43.570Z,1
2023-04-17T12:30:43.817Z,0.9
2023-04-17T12:31:53.621Z,1.4
2023-04-17T12:33:03.315Z,1.3
2023-04-17T12:34:13.189Z,1.3
2023-04-17T12:35:21.663Z,1.4
2023-04-17T12:36:31.449Z,1
2023-04-17T12:37:40.043Z,1.1
2023-04-17T12:38:49.711Z,1
2023-04-17T12:39:58.424Z,0.8
2023-04-17T12:41:06.111Z,0.9
2023-04-17T12:42:15.844Z,1.4
2023-04-17T12:43:23.543Z,1
2023-04-17T12:44:32.220Z,0.8
2023-04-17T12:45:42.480Z,0.7
2023-04-17T12:46:49.647Z,0.9
2023-04-17T12:47:59.361Z,1.1
2023-04-17T12:49:08.017Z,1
2023-04-17T12:50:16.715Z,1.1
2023-04-17T12:51:26.416Z,1.4
2023-04-17T12:52:34.058Z,1.1
2023-04-17T12:53:42.783Z,1.2
2023-04-17T12:54:52.480Z,0.7
2023-04-17T12:56:01.175Z,1
2023-04-17T12:57:10.859Z,0.9
2023-04-17T12:58:19.543Z,0.9
2023-04-17T12:59:27.228Z,1
2023-04-17T13:00:36.959Z,1.4
2023-04-17T13:01:45.728Z,1.2
2023-04-17T13:02:54.477Z,1
2023-04-17T13:04:04.320Z,1.3
2023-04-17T13:05:13.719Z,1.3
2023-04-17T13:06:23.399Z,0.7
2023-04-17T13:07:32.060Z,1
2023-04-17T13:08:40.747Z,0.9
2023-04-17T13:09:50.441Z,0.9
2023-04-17T13:10:59.172Z,0.8
2023-04-17T13:12:08.847Z,0.8
2023-04-17T13:13:18.548Z,0.8
2023-04-17T13:14:27.233Z,1.1
2023-04-17T13:15:36.937Z,1
2023-04-17T13:16:45.668Z,0.9
2023-04-17T13:17:54.344Z,0.9
2023-04-17T13:19:03.979Z,0.8
2023-04-17T13:20:11.663Z,0.9
2023-04-17T13:21:21.431Z,0.9
2023-04-17T13:22:31.553Z,0.8
2023-04-17T13:23:39.254Z,0.7
2023-04-17T13:24:48.951Z,0.8
2023-04-17T13:25:57.682Z,0.9
2023-04-17T13:27:05.366Z,0.8
2023-04-17T13:28:16.031Z,0.9
2023-04-17T13:29:25.722Z,0.4
2023-04-17T13:30:34.500Z,0.9
2023-04-17T13:31:43.175Z,0.9
2023-04-17T13:32:50.877Z,0.5
2023-04-17T13:34:00.536Z,0.9
2023-04-17T13:35:10.234Z,0.8
2023-04-17T13:36:18.954Z,0.8
2023-04-17T13:37:28.630Z,0.6
2023-04-17T13:38:36.402Z,0.7
2023-04-17T13:39:46.061Z,0.7
2023-04-17T13:40:55.801Z,0.6
2023-04-17T13:42:04.494Z,0.8
2023-04-17T13:43:14.252Z,0.9
2023-04-17T13:44:23.884Z,0.6
2023-04-17T13:45:31.608Z,0.6
2023-04-17T13:46:41.356Z,0.9
2023-04-17T13:47:49.008Z,0.5
2023-04-17T13:48:57.729Z,0.5
2023-04-17T13:50:07.480Z,0.4
2023-04-17T13:51:16.138Z,0.4
2023-04-17T13:52:25.816Z,0.5
2023-04-17T13:53:34.668Z,0.3
2023-04-17T13:54:42.377Z,0.4
2023-04-17T13:55:52.120Z,0.7
2023-04-17T13:57:00.782Z,0.4
2023-04-17T13:58:09.480Z,0.6
2023-04-17T13:59:19.140Z,0.4
2023-04-17T14:00:28.844Z,0.7
2023-04-17T14:01:37.579Z,0.7
2023-04-17T14:02:46.363Z,0.7
2023-04-17T14:03:54.060Z,0.6
2023-04-17T14:05:03.651Z,0.4
2023-04-17T14:06:11.421Z,0.6
2023-04-17T14:07:21.064Z,0.4
2023-04-17T14:08:30.711Z,0.5
2023-04-17T14:09:39.460Z,0.7
2023-04-17T14:10:48.326Z,0.6
2023-04-17T14:11:56.987Z,0.8
2023-04-17T14:13:05.672Z,0.7
2023-04-17T14:14:15.358Z,1
2023-04-17T14:15:26.084Z,0.8
2023-04-17T14:16:35.921Z,0.6
2023-04-17T14:17:45.647Z,0.6
2023-04-17T14:18:54.273Z,0.7
2023-04-17T14:20:03.950Z,0.7
2023-04-17T14:21:13.652Z,0.7
2023-04-17T14:22:21.520Z,0.6
2023-04-17T14:23:30.131Z,0.8
2023-04-17T14:24:38.776Z,0.7
2023-04-17T14:25:47.488Z,1.2
2023-04-17T14:26:57.188Z,0.6
2023-04-17T14:28:04.854Z,0.7
2023-04-17T14:29:14.775Z,0.8
2023-04-17T14:30:23.265Z,0.4
2023-04-17T14:31:30.978Z,0.6
2023-04-17T14:32:39.680Z,0.7
2023-04-17T14:33:49.303Z,0.7
2023-04-17T14:34:57.980Z,0.7
2023-04-17T14:36:07.671Z,0.7
2023-04-17T14:37:16.383Z,0.7
2023-04-17T14:38:25.092Z,1.1
2023-04-17T14:39:34.757Z,0.7
2023-04-17T14:40:42.446Z,0.5
2023-04-17T14:41:52.256Z,1.3
2023-04-17T14:43:01.934Z,0.4
2023-04-17T14:44:10.810Z,0.6
2023-04-17T14:45:20.333Z,0.5
2023-04-17T14:46:30.079Z,0.6
2023-04-17T14:47:37.771Z,0.5
2023-04-17T14:48:55.149Z,1
2023-04-17T14:49:56.069Z,0.8
2023-04-17T14:51:04.778Z,0.9
2023-04-17T14:52:14.434Z,0.7
2023-04-17T14:53:24.203Z,0.8
2023-04-17T14:54:33.969Z,0.7
2023-04-17T14:55:42.614Z,0.6
2023-04-17T14:56:51.297Z,1
2023-04-17T14:58:00.994Z,0.7
2023-04-17T14:59:10.918Z,1.2
2023-04-17T15:00:19.422Z,0.5
2023-04-17T15:01:29.155Z,0.7
2023-04-17T15:02:37.875Z,0.9
2023-04-17T15:03:48.369Z,0.5
2023-04-17T15:04:57.148Z,0.6
2023-04-17T15:06:04.834Z,0.6
2023-04-17T15:07:14.518Z,0.7
2023-04-17T15:08:22.173Z,1.1
2023-04-17T15:09:30.864Z,0.5
2023-04-17T15:10:50.552Z,0.9
2023-04-17T15:11:49.246Z,0.7
2023-04-17T15:12:58.973Z,0.8
2023-04-17T15:14:07.659Z,1.1
2023-04-17T15:15:17.370Z,1.1
2023-04-17T15:16:27.094Z,0.8
2023-04-17T15:17:34.789Z,1
2023-04-17T15:18:43.521Z,0.7
2023-04-17T15:19:52.218Z,1.1
2023-04-17T15:21:00.905Z,1.3
2023-04-17T15:22:10.637Z,0.9
2023-04-17T15:23:19.339Z,1.1
2023-04-17T15:24:28.033Z,1.5
2023-04-17T15:25:37.723Z,0.8
2023-04-17T15:26:45.510Z,1.1
2023-04-17T15:27:54.161Z,1
2023-04-17T15:29:03.835Z,1
2023-04-17T15:30:11.518Z,1.2
2023-04-17T15:31:21.247Z,1
2023-04-17T15:32:30.129Z,1
2023-04-17T15:33:37.800Z,0.9
2023-04-17T15:34:47.548Z,1
2023-04-17T15:35:55.308Z,1.3
2023-04-17T15:37:04.043Z,1
2023-04-17T15:38:12.742Z,1
2023-04-17T15:39:20.487Z,1.1
2023-04-17T15:40:30.167Z,1.3
2023-04-17T15:41:38.891Z,1.2
2023-04-17T15:42:47.697Z,0.9
2023-04-17T15:43:56.263Z,1.6
2023-04-17T15:45:03.929Z,1.2
2023-04-17T15:46:12.698Z,1.2
2023-04-17T15:47:22.491Z,1
2023-04-17T15:48:31.253Z,1.2
2023-04-17T15:49:40.948Z,1.1
2023-04-17T15:50:49.648Z,1.1
2023-04-17T15:51:58.346Z,1.1
2023-04-17T15:53:08.936Z,1.4
2023-04-17T15:54:16.767Z,1.4
2023-04-17T15:55:25.457Z,1.5
2023-04-17T15:56:35.130Z,1.5